createdAt,value
2023-08-14T00:01:11.288Z,21.40
2023-08-14T00:03:38.315Z,21.40
2023-08-14T00:06:05.352Z,21.20
2023-08-14T00:08:32.492Z,21.40
2023-08-14T00:10:59.547Z,21.80
2023-08-14T00:13:27.255Z,21.90
2023-08-14T00:15:54.480Z,21.20
2023-08-14T00:18:21.897Z,21.30
2023-08-14T00:20:48.943Z,21.30
2023-08-14T00:23:16.038Z,20.10
2023-08-14T00:25:43.751Z,21.50
2023-08-14T00:28:10.855Z,21.00
2023-08-14T00:30:37.873Z,21.30
2023-08-14T00:33:05.529Z,21.20
2023-08-14T00:35:32.582Z,21.30
2023-08-14T00:37:59.552Z,21.20
2023-08-14T00:40:26.544Z,21.30
2023-08-14T00:42:54.293Z,21.30
2023-08-14T00:45:24.814Z,21.20
2023-08-14T00:47:55.467Z,21.20
2023-08-14T00:50:22.836Z,21.20
2023-08-14T00:52:56.869Z,21.20
2023-08-14T00:55:28.268Z,21.20
2023-08-14T00:57:55.746Z,21.20
2023-08-14T01:00:24.404Z,21.40
2023-08-14T01:02:51.579Z,22.20
2023-08-14T01:05:18.962Z,21.70
2023-08-14T01:07:45.950Z,20.70
2023-08-14T01:10:13.528Z,21.20
2023-08-14T01:12:59.907Z,21.10
2023-08-14T01:15:32.704Z,21.10
2023-08-14T01:18:03.032Z,20.80
2023-08-14T01:20:33.746Z,20.90
2023-08-14T01:23:23.725Z,20.90
2023-08-14T01:25:53.271Z,21.40
2023-08-14T01:28:20.572Z,21.00
2023-08-14T01:30:47.640Z,21.00
2023-08-14T01:33:14.916Z,20.90
2023-08-14T01:36:05.029Z,21.00
2023-08-14T01:38:47.764Z,22.20
2023-08-14T01:41:30.026Z,21.10
2023-08-14T01:43:59.540Z,21.00
2023-08-14T01:46:28.223Z,21.00
2023-08-14T01:48:57.454Z,21.10
2023-08-14T01:51:25.573Z,21.10
2023-08-14T01:53:52.711Z,20.90
2023-08-14T01:56:19.661Z,20.90
2023-08-14T01:58:46.645Z,22.50
2023-08-14T02:01:13.633Z,21.00
2023-08-14T02:03:42.053Z,21.00
2023-08-14T02:06:09.123Z,20.90
2023-08-14T02:08:37.798Z,20.70
2023-08-14T02:11:09.078Z,20.80
2023-08-14T02:13:37.105Z,20.60
2023-08-14T02:16:04.894Z,20.60
2023-08-14T02:18:32.177Z,21.00
2023-08-14T02:20:59.242Z,20.80
2023-08-14T02:23:26.365Z,20.30
2023-08-14T02:25:56.717Z,19.70
2023-08-14T02:28:23.879Z,20.30
2023-08-14T02:30:50.844Z,20.30
2023-08-14T02:33:18.684Z,20.70
2023-08-14T02:35:46.097Z,20.70
2023-08-14T02:38:16.247Z,20.50
2023-08-14T02:40:44.506Z,20.40
2023-08-14T02:43:11.573Z,20.60
2023-08-14T02:45:38.764Z,20.50
2023-08-14T02:48:06.091Z,20.50
2023-08-14T02:50:33.381Z,20.60
2023-08-14T02:53:00.338Z,20.40
2023-08-14T02:55:28.104Z,20.30
2023-08-14T02:57:55.196Z,20.30
2023-08-14T03:00:22.946Z,20.40
2023-08-14T03:02:50.055Z,21.00
2023-08-14T03:05:18.176Z,20.50
2023-08-14T03:07:45.169Z,20.50
2023-08-14T03:10:12.164Z,20.40
2023-08-14T03:12:39.241Z,21.80
2023-08-14T03:15:07.491Z,20.50
2023-08-14T03:17:34.552Z,20.70
2023-08-14T03:20:01.850Z,20.30
2023-08-14T03:22:28.882Z,20.30
2023-08-14T03:24:55.884Z,19.90
2023-08-14T03:27:22.948Z,19.50
2023-08-14T03:29:49.956Z,20.30
2023-08-14T03:32:17.622Z,20.40
2023-08-14T03:34:46.301Z,20.40
2023-08-14T03:37:13.290Z,20.30
2023-08-14T03:39:40.972Z,20.40
2023-08-14T03:42:08.796Z,20.30
2023-08-14T03:44:35.943Z,19.80
2023-08-14T03:47:03.166Z,20.40
2023-08-14T03:49:30.573Z,20.40
2023-08-14T03:51:57.739Z,20.20
2023-08-14T03:54:24.810Z,20.40
2023-08-14T03:56:51.868Z,20.20
2023-08-14T03:59:18.843Z,20.50
2023-08-14T04:01:45.998Z,20.20
2023-08-14T04:04:13.097Z,20.20
2023-08-14T04:06:40.111Z,20.40
2023-08-14T04:09:07.720Z,20.30
2023-08-14T04:11:34.743Z,20.70
2023-08-14T04:14:01.866Z,20.30
2023-08-14T04:16:42.505Z,20.20
2023-08-14T04:19:15.363Z,20.10
2023-08-14T04:21:43.467Z,20.40
2023-08-14T04:24:11.241Z,20.10
2023-08-14T04:26:38.327Z,20.60
2023-08-14T04:29:07.949Z,20.20
2023-08-14T04:31:40.116Z,20.70
2023-08-14T04:34:09.411Z,20.10
2023-08-14T04:36:38.404Z,20.20
2023-08-14T04:39:05.910Z,19.90
2023-08-14T04:41:33.145Z,22.30
2023-08-14T04:44:01.520Z,20.10
2023-08-14T04:46:48.939Z,20.20
2023-08-14T04:49:23.245Z,19.90
2023-08-14T04:51:50.932Z,21.10
2023-08-14T04:54:18.686Z,20.10
2023-08-14T04:56:46.150Z,20.00
2023-08-14T04:59:13.169Z,20.10
2023-08-14T05:01:40.661Z,20.10
2023-08-14T05:04:08.051Z,20.10
2023-08-14T05:06:35.898Z,20.20
2023-08-14T05:09:16.102Z,19.80
2023-08-14T05:11:51.346Z,20.10
2023-08-14T05:16:48.314Z,20.20
2023-08-14T05:19:15.534Z,20.10
2023-08-14T05:21:43.405Z,20.10
2023-08-14T05:24:10.605Z,20.50
2023-08-14T05:26:37.559Z,20.00
2023-08-14T05:29:04.994Z,20.10
2023-08-14T05:31:32.121Z,20.50
2023-08-14T05:33:59.217Z,20.00
2023-08-14T05:36:26.198Z,20.10
2023-08-14T05:38:53.326Z,20.20
2023-08-14T05:41:22.760Z,20.00
2023-08-14T05:43:52.410Z,20.00
2023-08-14T05:46:20.400Z,20.10
2023-08-14T05:48:47.487Z,20.10
2023-08-14T05:51:14.513Z,20.00
2023-08-14T05:53:41.560Z,20.30
2023-08-14T05:56:08.816Z,20.20
2023-08-14T05:58:35.838Z,20.20
2023-08-14T06:01:03.951Z,20.10
2023-08-14T06:03:42.567Z,20.60
2023-08-14T06:06:11.140Z,21.00
2023-08-14T06:08:38.159Z,20.10
2023-08-14T06:11:05.392Z,20.40
2023-08-14T06:13:33.016Z,20.10
2023-08-14T06:18:28.047Z,20.00
2023-08-14T06:20:55.854Z,21.20
2023-08-14T06:23:22.899Z,20.60
2023-08-14T06:25:49.948Z,20.20
2023-08-14T06:28:16.888Z,20.10
2023-08-14T06:30:43.933Z,19.80
2023-08-14T06:33:11.162Z,21.50
2023-08-14T06:35:38.289Z,20.20
2023-08-14T06:38:05.284Z,19.80
2023-08-14T06:40:32.634Z,20.40
2023-08-14T06:43:00.368Z,20.10
2023-08-14T06:45:27.461Z,21.50
2023-08-14T06:47:54.454Z,20.00
2023-08-14T06:50:21.427Z,20.40
2023-08-14T06:52:48.739Z,20.20
2023-08-14T06:55:15.744Z,20.20
2023-08-14T06:57:42.719Z,20.20
2023-08-14T07:00:14.789Z,20.20
2023-08-14T07:02:42.361Z,20.30
2023-08-14T07:05:12.149Z,19.90
2023-08-14T07:07:40.168Z,20.20
2023-08-14T07:10:08.316Z,19.90
2023-08-14T07:12:35.334Z,20.60
2023-08-14T07:15:02.378Z,20.00
2023-08-14T07:17:29.985Z,20.40
2023-08-14T07:19:57.018Z,20.50
2023-08-14T07:22:24.268Z,20.40
2023-08-14T07:24:51.293Z,20.50
2023-08-14T07:27:18.332Z,20.60
2023-08-14T07:29:45.422Z,20.40
2023-08-14T07:32:12.572Z,20.00
2023-08-14T07:34:39.635Z,20.40
2023-08-14T07:37:06.669Z,20.30
2023-08-14T07:39:33.685Z,20.60
2023-08-14T07:42:00.820Z,21.10
2023-08-14T07:44:27.904Z,20.70
2023-08-14T07:46:54.921Z,20.40
2023-08-14T07:49:21.953Z,20.40
2023-08-14T07:51:49.234Z,20.40
2023-08-14T07:54:16.335Z,20.20
2023-08-14T07:56:46.122Z,20.40
2023-08-14T07:59:14.181Z,20.50
2023-08-14T08:01:43.026Z,20.50
2023-08-14T08:04:10.276Z,20.80
2023-08-14T08:06:44.536Z,20.70
2023-08-14T08:09:13.601Z,20.90
2023-08-14T08:11:40.621Z,21.10
2023-08-14T08:14:07.914Z,20.90
2023-08-14T08:16:38.185Z,21.00
2023-08-14T08:19:08.399Z,21.00
2023-08-14T08:21:35.545Z,21.20
2023-08-14T08:24:02.498Z,21.00
2023-08-14T08:26:29.662Z,20.50
2023-08-14T08:28:56.678Z,21.90
2023-08-14T08:31:24.042Z,21.70
2023-08-14T08:33:51.256Z,21.00
2023-08-14T08:36:18.789Z,21.80
2023-08-14T08:38:47.448Z,21.70
2023-08-14T08:41:23.290Z,21.80
2023-08-14T08:44:11.088Z,21.80
2023-08-14T08:46:44.268Z,21.80
2023-08-14T08:49:12.240Z,21.40
2023-08-14T08:51:40.725Z,21.70
2023-08-14T08:54:07.925Z,21.00
2023-08-14T08:56:35.996Z,21.70
2023-08-14T08:59:04.550Z,21.80
2023-08-14T09:01:32.170Z,21.60
2023-08-14T09:03:59.514Z,21.90
2023-08-14T09:06:26.830Z,21.70
2023-08-14T09:08:54.212Z,21.90
2023-08-14T09:11:21.995Z,22.60
2023-08-14T09:13:49.660Z,21.80
2023-08-14T09:16:19.818Z,22.30
2023-08-14T09:18:50.022Z,22.40
2023-08-14T09:21:17.605Z,22.50
2023-08-14T09:23:44.823Z,22.80
2023-08-14T09:26:12.947Z,22.70
2023-08-14T09:28:40.272Z,23.40
2023-08-14T09:31:09.162Z,22.90
2023-08-14T09:33:40.052Z,23.10
2023-08-14T09:36:07.950Z,22.80
2023-08-14T09:38:35.508Z,24.70
2023-08-14T09:41:03.086Z,23.30
2023-08-14T09:43:32.308Z,23.10
2023-08-14T09:46:02.047Z,23.10
2023-08-14T09:48:43.863Z,22.60
2023-08-14T09:51:12.827Z,22.70
2023-08-14T09:53:56.569Z,23.00
2023-08-14T09:56:24.811Z,22.90
2023-08-14T09:58:54.348Z,23.20
2023-08-14T10:01:23.476Z,25.10
2023-08-14T10:03:55.372Z,23.70
2023-08-14T10:06:26.825Z,23.70
2023-08-14T10:09:00.893Z,24.30
2023-08-14T10:11:30.322Z,24.70
2023-08-14T10:14:02.986Z,25.40
2023-08-14T10:16:36.711Z,24.30
2023-08-14T10:19:11.391Z,23.90
2023-08-14T10:21:41.667Z,24.60
2023-08-14T10:24:09.033Z,24.80
2023-08-14T10:26:36.108Z,24.10
2023-08-14T10:29:04.688Z,27.10
2023-08-14T10:31:33.996Z,25.00
2023-08-14T10:34:01.567Z,25.40
2023-08-14T10:36:29.954Z,25.10
2023-08-14T10:39:18.097Z,24.90
2023-08-14T10:41:46.050Z,25.00
2023-08-14T10:44:13.333Z,25.00
2023-08-14T10:46:44.039Z,25.30
2023-08-14T10:49:14.946Z,25.40
2023-08-14T10:51:43.857Z,25.30
2023-08-14T10:54:16.091Z,25.20
2023-08-14T10:56:47.177Z,25.50
2023-08-14T10:59:27.770Z,25.80
2023-08-14T11:02:11.506Z,25.80
2023-08-14T11:05:02.448Z,25.70
2023-08-14T11:07:31.679Z,25.60
2023-08-14T11:10:03.271Z,25.20
2023-08-14T11:12:33.151Z,25.30
2023-08-14T11:15:00.463Z,25.30
2023-08-14T11:17:29.165Z,25.30
2023-08-14T11:19:56.692Z,26.60
2023-08-14T11:22:23.954Z,27.40
2023-08-14T11:24:51.607Z,27.60
2023-08-14T11:27:18.833Z,26.80
2023-08-14T11:29:52.907Z,27.00
2023-08-14T11:32:21.451Z,26.20
2023-08-14T11:34:49.161Z,26.30
2023-08-14T11:37:17.276Z,26.20
2023-08-14T11:39:45.660Z,27.10
2023-08-14T11:42:12.916Z,25.90
2023-08-14T11:44:40.114Z,27.50
2023-08-14T11:47:10.610Z,26.30
2023-08-14T11:49:39.323Z,25.60
2023-08-14T11:52:07.745Z,25.40
2023-08-14T11:54:35.891Z,25.80
2023-08-14T11:57:04.965Z,26.90
2023-08-14T11:59:32.614Z,26.70
2023-08-14T12:01:59.842Z,26.60
2023-08-14T12:04:27.811Z,27.40
2023-08-14T12:06:56.437Z,26.80
2023-08-14T12:09:29.634Z,26.20
2023-08-14T12:11:56.695Z,25.40
2023-08-14T12:14:23.733Z,25.30
2023-08-14T12:16:50.917Z,25.70
2023-08-14T12:19:21.917Z,27.40
2023-08-14T12:21:57.878Z,25.20
2023-08-14T12:24:25.393Z,24.70
2023-08-14T12:26:52.577Z,26.20
2023-08-14T12:29:20.203Z,26.20
2023-08-14T12:31:48.073Z,25.30
2023-08-14T12:34:17.259Z,26.90
2023-08-14T12:36:44.267Z,26.30
2023-08-14T12:39:11.647Z,26.90
2023-08-14T12:41:39.553Z,28.20
2023-08-14T12:44:06.708Z,27.00
2023-08-14T12:46:33.840Z,26.30
2023-08-14T12:49:00.904Z,26.80
2023-08-14T12:51:27.950Z,25.40
2023-08-14T12:53:54.980Z,25.30
2023-08-14T12:58:56.738Z,25.00
2023-08-14T13:01:24.562Z,26.60
2023-08-14T13:03:53.290Z,25.30
2023-08-14T13:06:21.370Z,25.40
2023-08-14T13:08:48.893Z,25.10
2023-08-14T13:11:18.930Z,25.40
2023-08-14T13:13:46.611Z,25.50
2023-08-14T13:16:14.026Z,25.20
2023-08-14T13:18:41.115Z,25.80
2023-08-14T13:21:08.152Z,25.60
2023-08-14T13:23:35.124Z,24.90
2023-08-14T13:26:02.169Z,25.50
2023-08-14T13:28:31.034Z,24.90
2023-08-14T13:30:58.071Z,24.90
2023-08-14T13:33:25.154Z,25.60
2023-08-14T13:35:52.145Z,25.80
2023-08-14T13:38:19.149Z,25.30
2023-08-14T13:40:46.140Z,25.80
2023-08-14T13:43:14.528Z,25.80
2023-08-14T13:45:44.169Z,27.00
2023-08-14T13:48:11.464Z,26.60
2023-08-14T13:50:38.722Z,26.50
2023-08-14T13:53:06.799Z,27.30
2023-08-14T13:55:34.750Z,27.80
2023-08-14T13:58:02.963Z,25.80
2023-08-14T14:00:31.395Z,25.60
2023-08-14T14:02:59.965Z,25.50
2023-08-14T14:05:28.612Z,26.20
2023-08-14T14:07:57.482Z,26.10
2023-08-14T14:10:28.511Z,26.70
2023-08-14T14:13:01.949Z,26.70
2023-08-14T14:15:31.147Z,26.50
2023-08-14T14:17:58.620Z,26.60
2023-08-14T14:20:25.972Z,27.20
2023-08-14T14:22:52.937Z,26.50
2023-08-14T14:25:20.010Z,27.00
2023-08-14T14:27:47.117Z,27.10
2023-08-14T14:30:14.276Z,27.90
2023-08-14T14:32:41.293Z,27.20
2023-08-14T14:35:08.855Z,27.40
2023-08-14T14:37:36.069Z,27.30
2023-08-14T14:40:03.416Z,27.10
2023-08-14T14:42:30.524Z,28.70
2023-08-14T14:44:57.636Z,26.00
2023-08-14T14:47:25.564Z,26.00
2023-08-14T14:49:53.093Z,27.40
2023-08-14T14:52:20.500Z,28.10
2023-08-14T14:54:47.872Z,28.60
2023-08-14T14:57:15.386Z,27.30
2023-08-14T14:59:43.412Z,27.40
2023-08-14T15:02:23.566Z,26.20
2023-08-14T15:04:55.127Z,27.00
2023-08-14T15:07:22.414Z,27.00
2023-08-14T15:09:49.683Z,26.70
2023-08-14T15:12:16.682Z,26.70
2023-08-14T15:14:43.822Z,26.80
2023-08-14T15:17:11.578Z,27.00
2023-08-14T15:19:38.894Z,27.00
2023-08-14T15:22:05.989Z,27.00
2023-08-14T15:24:33.025Z,28.60
2023-08-14T15:27:00.086Z,27.20
2023-08-14T15:29:27.166Z,27.30
2023-08-14T15:31:54.634Z,25.80
2023-08-14T15:34:21.612Z,28.70
2023-08-14T15:36:48.582Z,27.10
2023-08-14T15:39:15.577Z,27.20
2023-08-14T15:41:43.504Z,27.10
2023-08-14T15:44:12.528Z,27.20
2023-08-14T15:46:39.840Z,27.10
2023-08-14T15:49:08.454Z,26.70
2023-08-14T15:51:36.796Z,27.30
2023-08-14T15:54:04.572Z,27.20
2023-08-14T15:56:31.578Z,27.30
2023-08-14T15:58:58.639Z,27.30
2023-08-14T16:01:25.688Z,26.80
2023-08-14T16:03:54.063Z,27.70
2023-08-14T16:06:22.266Z,26.70
2023-08-14T16:08:49.335Z,27.40
2023-08-14T16:11:16.949Z,27.30
2023-08-14T16:13:45.187Z,28.60
2023-08-14T16:16:12.707Z,27.50
2023-08-14T16:18:39.849Z,27.40
2023-08-14T16:21:08.297Z,27.50
2023-08-14T16:23:35.449Z,27.40
2023-08-14T16:26:02.482Z,26.90
2023-08-14T16:28:29.708Z,27.00
2023-08-14T16:30:59.289Z,26.70
2023-08-14T16:33:27.572Z,27.20
2023-08-14T16:35:55.527Z,28.00
2023-08-14T16:38:22.688Z,27.70
2023-08-14T16:40:50.738Z,27.00
2023-08-14T16:43:20.462Z,27.30
2023-08-14T16:45:50.000Z,27.30
2023-08-14T16:48:17.365Z,27.10
2023-08-14T16:50:45.489Z,27.00
2023-08-14T16:53:12.694Z,27.10
2023-08-14T16:55:39.868Z,27.30
2023-08-14T16:58:06.951Z,26.50
2023-08-14T17:00:34.002Z,26.70
2023-08-14T17:03:03.608Z,26.50
2023-08-14T17:05:31.193Z,26.10
2023-08-14T17:07:58.483Z,26.50
2023-08-14T17:10:25.679Z,28.20
2023-08-14T17:12:52.712Z,26.40
2023-08-14T17:17:51.908Z,26.10
2023-08-14T17:20:19.095Z,26.20
2023-08-14T17:22:46.175Z,26.10
2023-08-14T17:25:13.374Z,26.10
2023-08-14T17:27:40.410Z,26.10
2023-08-14T17:30:08.511Z,26.30
2023-08-14T17:32:35.519Z,26.10
2023-08-14T17:35:02.663Z,26.00
2023-08-14T17:37:30.314Z,25.70
2023-08-14T17:39:57.368Z,25.90
2023-08-14T17:42:24.418Z,25.80
2023-08-14T17:44:51.429Z,26.10
2023-08-14T17:47:18.814Z,25.80
2023-08-14T17:49:46.037Z,26.00
2023-08-14T17:52:13.284Z,26.00
2023-08-14T17:54:40.378Z,25.80
2023-08-14T17:57:07.630Z,25.80
2023-08-14T17:59:34.632Z,25.90
2023-08-14T18:02:01.711Z,26.00
2023-08-14T18:04:33.145Z,26.00
2023-08-14T18:07:09.155Z,25.90
2023-08-14T18:09:37.470Z,25.80
2023-08-14T18:12:07.151Z,25.50
2023-08-14T18:14:34.141Z,25.60
2023-08-14T18:17:04.643Z,25.80
2023-08-14T18:19:34.932Z,25.60
2023-08-14T18:22:03.629Z,25.70
2023-08-14T18:24:31.244Z,25.70
2023-08-14T18:26:58.692Z,25.30
2023-08-14T18:29:27.213Z,25.60
2023-08-14T18:31:58.769Z,25.90
2023-08-14T18:34:31.489Z,25.90
2023-08-14T18:37:00.024Z,25.70
2023-08-14T18:39:28.160Z,25.40
2023-08-14T18:41:57.992Z,25.50
2023-08-14T18:44:25.114Z,25.50
2023-08-14T18:46:55.439Z,25.30
2023-08-14T18:49:24.270Z,25.50
2023-08-14T18:51:52.701Z,25.30
2023-08-14T18:54:22.332Z,25.50
2023-08-14T18:56:50.615Z,25.40
2023-08-14T18:59:27.732Z,25.30
2023-08-14T19:01:59.976Z,25.30
2023-08-14T19:04:40.623Z,24.80
2023-08-14T19:07:17.628Z,25.30
2023-08-14T19:09:45.489Z,25.70
2023-08-14T19:12:16.355Z,25.30
2023-08-14T19:14:43.392Z,25.20
2023-08-14T19:17:10.525Z,25.00
2023-08-14T19:19:37.486Z,24.70
2023-08-14T19:24:32.130Z,25.20
2023-08-14T19:26:59.137Z,25.30
2023-08-14T19:29:26.231Z,25.20
2023-08-14T19:31:53.264Z,25.30
2023-08-14T19:34:20.350Z,25.10
2023-08-14T19:36:47.381Z,25.10
2023-08-14T19:39:14.372Z,25.20
2023-08-14T19:41:41.844Z,25.10
2023-08-14T19:44:10.989Z,25.20
2023-08-14T19:46:39.189Z,25.00
2023-08-14T19:49:06.165Z,25.20
2023-08-14T19:51:33.393Z,25.00
2023-08-14T19:54:00.393Z,24.90
2023-08-14T19:56:27.911Z,25.00
2023-08-14T19:58:54.929Z,25.00
2023-08-14T20:01:22.082Z,25.00
2023-08-14T20:03:49.223Z,25.30
2023-08-14T20:06:16.466Z,24.80
2023-08-14T20:11:10.959Z,24.80
2023-08-14T20:13:37.950Z,24.80
2023-08-14T20:16:05.141Z,24.80
2023-08-14T20:18:32.221Z,24.80
2023-08-14T20:20:59.585Z,24.70
2023-08-14T20:23:29.541Z,24.70
2023-08-14T20:25:56.648Z,24.60
2023-08-14T20:28:23.742Z,24.70
2023-08-14T20:30:50.902Z,24.70
2023-08-14T20:33:18.023Z,24.60
2023-08-14T20:35:46.234Z,24.60
2023-08-14T20:38:14.213Z,24.60
2023-08-14T20:40:41.426Z,24.40
2023-08-14T20:43:13.817Z,24.50
2023-08-14T20:45:41.489Z,24.50
2023-08-14T20:48:09.133Z,24.50
2023-08-14T20:50:36.991Z,23.40
2023-08-14T20:53:04.739Z,24.20
2023-08-14T20:55:31.949Z,24.30
2023-08-14T20:57:58.980Z,24.20
2023-08-14T21:00:26.005Z,24.40
2023-08-14T21:02:53.124Z,24.50
2023-08-14T21:05:20.139Z,24.20
2023-08-14T21:07:47.150Z,24.50
2023-08-14T21:10:14.173Z,24.30
2023-08-14T21:12:41.276Z,24.30
2023-08-14T21:15:09.038Z,23.00
2023-08-14T21:17:36.126Z,24.20
2023-08-14T21:20:04.726Z,24.10
2023-08-14T21:22:31.935Z,24.30
2023-08-14T21:24:59.066Z,24.20
2023-08-14T21:27:26.075Z,24.10
2023-08-14T21:29:56.559Z,24.10
2023-08-14T21:32:23.605Z,24.00
2023-08-14T21:34:52.438Z,23.80
2023-08-14T21:37:22.596Z,24.00
2023-08-14T21:39:54.100Z,24.10
2023-08-14T21:42:24.433Z,24.00
2023-08-14T21:44:56.939Z,23.90
2023-08-14T21:47:26.425Z,24.00
2023-08-14T21:49:56.478Z,24.00
2023-08-14T21:52:25.809Z,23.90
2023-08-14T21:54:57.080Z,23.90
2023-08-14T21:57:26.371Z,23.90
2023-08-14T21:59:56.367Z,23.90
2023-08-14T22:02:23.837Z,23.40
2023-08-14T22:04:53.037Z,24.20
2023-08-14T22:07:24.062Z,23.80
2023-08-14T22:09:55.378Z,23.90
2023-08-14T22:12:26.134Z,24.50
2023-08-14T22:14:53.235Z,23.80
2023-08-14T22:17:23.245Z,23.80
2023-08-14T22:19:53.720Z,23.80
2023-08-14T22:22:23.139Z,23.80
2023-08-14T22:25:00.697Z,23.70
2023-08-14T22:27:33.499Z,23.40
2023-08-14T22:30:04.048Z,23.80
2023-08-14T22:32:34.302Z,23.70
2023-08-14T22:35:03.362Z,23.70
2023-08-14T22:37:31.267Z,23.70
2023-08-14T22:39:58.333Z,23.30
2023-08-14T22:42:27.530Z,25.80
2023-08-14T22:44:57.547Z,23.60
2023-08-14T22:47:27.483Z,23.60
2023-08-14T22:49:55.390Z,24.40
2023-08-14T22:52:23.794Z,24.70
2023-08-14T22:54:51.025Z,23.10
2023-08-14T22:57:18.320Z,23.50
2023-08-14T22:59:49.908Z,23.50
2023-08-14T23:02:17.854Z,23.50
2023-08-14T23:04:47.559Z,23.50
2023-08-14T23:07:19.857Z,23.50
2023-08-14T23:09:49.493Z,23.20
2023-08-14T23:12:28.466Z,23.50
2023-08-14T23:14:59.755Z,23.20
2023-08-14T23:17:27.125Z,23.00
2023-08-14T23:19:57.210Z,23.40
2023-08-14T23:22:25.040Z,23.80
2023-08-14T23:24:52.351Z,23.40
2023-08-14T23:27:20.231Z,23.20
2023-08-14T23:29:49.915Z,23.50
2023-08-14T23:32:19.527Z,23.30
2023-08-14T23:34:47.141Z,23.30
2023-08-14T23:37:15.746Z,23.30
2023-08-14T23:39:50.666Z,23.30
2023-08-14T23:42:20.658Z,23.30
2023-08-14T23:44:55.006Z,23.30
2023-08-14T23:47:26.886Z,23.30
2023-08-14T23:49:56.488Z,23.10
2023-08-14T23:52:23.692Z,23.40
2023-08-14T23:54:50.993Z,23.30
2023-08-14T23:57:17.931Z,23.20
2023-08-14T23:59:45.088Z,22.40
